Time,TemperatureF,DewpointF,PressureIn,WindDirection,WindDirectionDegrees,WindSpeedMPH,WindSpeedGustMPH,Humidity,HourlyPrecipIn,Conditions,Clouds,dailyrainin,SoftwareType,DateUTC
2013-03-20 00:09:00,31.1,6.0,30.24,SW,234,0.0,4.0,34,0.00,,,0.00,weatherlink.com 1.10,2013-03-20 04:09:00,
2013-03-20 00:24:00,31.0,6.0,30.24,SW,229,3.0,6.0,34,0.00,,,0.00,weatherlink.com 1.10,2013-03-20 04:24:00,
2013-03-20 00:39:00,30.6,6.0,30.24,WNW,283,2.0,5.0,36,0.00,,,0.00,weatherlink.com 1.10,2013-03-20 04:39:00,
2013-03-20 01:09:00,30.2,7.0,30.24,NE,55,1.0,6.0,38,0.00,,,0.00,weatherlink.com 1.10,2013-03-20 05:09:00,
2013-03-20 01:24:00,29.9,8.0,30.24,West,281,0.0,4.0,39,0.00,,,0.00,weatherlink.com 1.10,2013-03-20 05:24:00,
2013-03-20 01:39:00,29.6,8.0,30.24,SW,230,0.0,5.0,41,0.00,,,0.00,weatherlink.com 1.10,2013-03-20 05:39:00,
2013-03-20 01:54:00,29.2,9.0,30.24,NNW,341,0.0,9.0,42,0.00,,,0.00,weatherlink.com 1.10,2013-03-20 05:54:00,
2013-03-20 02:09:00,29.0,9.0,30.24,WSW,238,0.0,4.0,43,0.00,,,0.00,weatherlink.com 1.10,2013-03-20 06:09:00,
2013-03-20 02:25:00,28.7,9.0,30.25,North,5,0.0,4.0,43,0.00,,,0.00,weatherlink.com 1.10,2013-03-20 06:25:00,
2013-03-20 02:40:00,28.4,8.0,30.25,West,265,0.0,4.0,43,0.00,,,0.00,weatherlink.com 1.10,2013-03-20 06:40:00,
2013-03-20 02:55:00,28.3,9.0,30.25,West,268,0.0,5.0,44,0.00,,,0.00,weatherlink.com 1.10,2013-03-20 06:55:00,
2013-03-20 03:10:00,27.9,8.0,30.25,WSW,257,0.0,5.0,44,0.00,,,0.00,weatherlink.com 1.10,2013-03-20 07:10:00,
2013-03-20 03:25:00,27.5,10.0,30.25,NW,321,0.0,3.0,47,0.00,,,0.00,weatherlink.com 1.10,2013-03-20 07:25:00,
2013-03-20 03:40:00,27.5,9.0,30.24,WSW,238,0.0,3.0,46,0.00,,,0.00,weatherlink.com 1.10,2013-03-20 07:40:00,
2013-03-20 03:55:00,27.3,9.0,30.24,WSW,245,0.0,3.0,47,0.00,,,0.00,weatherlink.com 1.10,2013-03-20 07:55:00,
2013-03-20 04:10:00,26.7,10.0,30.24,West,274,0.0,2.0,49,0.00,,,0.00,weatherlink.com 1.10,2013-03-20 08:10:00,
2013-03-20 04:25:00,26.3,10.0,30.24,West,261,0.0,0.0,50,0.00,,,0.00,weatherlink.com 1.10,2013-03-20 08:25:00,
2013-03-20 04:40:00,25.7,10.0,30.24,SW,233,0.0,1.0,51,0.00,,,0.00,weatherlink.com 1.10,2013-03-20 08:40:00,
2013-03-20 04:55:00,25.6,10.0,30.23,West,263,0.0,2.0,51,0.00,,,0.00,weatherlink.com 1.10,2013-03-20 08:55:00,
2013-03-20 05:10:00,25.2,11.0,30.23,NNW,342,0.0,3.0,54,0.00,,,0.00,weatherlink.com 1.10,2013-03-20 09:10:00,
2013-03-20 05:25:00,24.3,11.0,30.23,NNW,342,0.0,0.0,56,0.00,,,0.00,weatherlink.com 1.10,2013-03-20 09:25:00,
2013-03-20 05:40:00,23.9,11.0,30.23,WSW,244,0.0,4.0,58,0.00,,,0.00,weatherlink.com 1.10,2013-03-20 09:40:00,
2013-03-20 05:56:00,24.3,10.0,30.24,WSW,253,0.0,2.0,55,0.00,,,0.00,weatherlink.com 1.10,2013-03-20 09:56:00,
2013-03-20 06:11:00,24.6,10.0,30.24,WSW,250,0.0,4.0,54,0.00,,,0.00,weatherlink.com 1.10,2013-03-20 10:11:00,
2013-03-20 06:26:00,24.7,11.0,30.24,West,267,0.0,4.0,55,0.00,,,0.00,weatherlink.com 1.10,2013-03-20 10:26:00,
2013-03-20 07:11:00,23.7,11.0,30.24,NNW,331,0.0,1.0,58,0.00,,,0.00,weatherlink.com 1.10,2013-03-20 11:11:00,
2013-03-20 07:26:00,23.2,11.0,30.24,West,278,0.0,1.0,59,0.00,,,0.00,weatherlink.com 1.10,2013-03-20 11:26:00,
2013-03-20 07:41:00,22.9,10.0,30.24,WNW,284,0.0,1.0,59,0.00,,,0.00,weatherlink.com 1.10,2013-03-20 11:41:00,
2013-03-20 07:56:00,23.3,11.0,30.25,West,274,1.0,2.0,60,0.00,,,0.00,weatherlink.com 1.10,2013-03-20 11:56:00,
2013-03-20 08:11:00,23.8,10.0,30.25,West,269,0.0,2.0,57,0.00,,,0.00,weatherlink.com 1.10,2013-03-20 12:11:00,
2013-03-20 08:26:00,24.5,11.0,30.26,West,269,0.0,1.0,57,0.00,,,0.00,weatherlink.com 1.10,2013-03-20 12:26:00,
2013-03-20 08:41:00,25.3,11.0,30.26,WSW,240,0.0,4.0,56,0.00,,,0.00,weatherlink.com 1.10,2013-03-20 12:41:00,
2013-03-20 08:56:00,26.0,12.0,30.26,NNW,333,0.0,6.0,55,0.00,,,0.00,weatherlink.com 1.10,2013-03-20 12:56:00,
2013-03-20 09:12:00,26.9,12.0,30.27,NNE,24,2.0,10.0,54,0.00,,,0.00,weatherlink.com 1.10,2013-03-20 13:12:00,
2013-03-20 09:27:00,28.0,12.0,30.26,NNW,335,0.0,6.0,52,0.00,,,0.00,weatherlink.com 1.10,2013-03-20 13:27:00,
2013-03-20 09:42:00,30.2,13.0,30.27,NNW,344,1.0,2.0,49,0.00,,,0.00,weatherlink.com 1.10,2013-03-20 13:42:00,
2013-03-20 09:57:00,30.4,12.0,30.27,NW,305,2.0,6.0,47,0.00,,,0.00,weatherlink.com 1.10,2013-03-20 13:57:00,
2013-03-20 10:12:00,31.7,13.0,30.26,East,101,0.0,5.0,46,0.00,,,0.00,weatherlink.com 1.10,2013-03-20 14:12:00,
2013-03-20 10:27:00,32.0,12.0,30.26,NE,38,5.0,7.0,43,0.00,,,0.00,weatherlink.com 1.10,2013-03-20 14:27:00,
2013-03-20 10:42:00,31.7,12.0,30.26,SW,218,0.0,8.0,44,0.00,,,0.00,weatherlink.com 1.10,2013-03-20 14:42:00,
2013-03-20 10:57:00,31.7,11.0,30.24,ENE,73,3.0,12.0,43,0.00,,,0.00,weatherlink.com 1.10,2013-03-20 14:57:00,
2013-03-20 11:12:00,32.4,11.0,30.25,North,5,0.0,14.0,41,0.00,,,0.00,weatherlink.com 1.10,2013-03-20 15:12:00,
2013-03-20 11:27:00,33.6,10.0,30.24,SE,143,1.0,10.0,37,0.00,,,0.00,weatherlink.com 1.10,2013-03-20 15:27:00,
2013-03-20 11:42:00,34.4,11.0,30.24,WSW,253,2.0,13.0,38,0.00,,,0.00,weatherlink.com 1.10,2013-03-20 15:42:00,
2013-03-20 11:57:00,34.9,12.0,30.23,South,173,6.0,12.0,39,0.00,,,0.00,weatherlink.com 1.10,2013-03-20 15:57:00,
2013-03-20 12:12:00,36.5,12.0,30.22,NNW,340,1.0,7.0,36,0.00,,,0.00,weatherlink.com 1.10,2013-03-20 16:12:00,
2013-03-20 12:27:00,37.7,13.0,30.22,ESE,117,4.0,12.0,36,0.00,,,0.00,weatherlink.com 1.10,2013-03-20 16:27:00,
2013-03-20 12:43:00,36.9,11.0,30.21,West,266,3.0,9.0,34,0.00,,,0.00,weatherlink.com 1.10,2013-03-20 16:43:00,
2013-03-20 12:58:00,37.5,11.0,30.20,West,278,1.0,10.0,33,0.00,,,0.00,weatherlink.com 1.10,2013-03-20 16:58:00,
2013-03-20 13:13:00,38.1,12.0,30.20,WSW,247,2.0,12.0,34,0.00,,,0.00,weatherlink.com 1.10,2013-03-20 17:13:00,
2013-03-20 13:28:00,38.9,11.0,30.19,WNW,289,3.0,11.0,32,0.00,,,0.00,weatherlink.com 1.10,2013-03-20 17:28:00,
2013-03-20 13:43:00,39.3,12.0,30.17,ENE,65,0.0,12.0,32,0.00,,,0.00,weatherlink.com 1.10,2013-03-20 17:43:00,
2013-03-20 13:58:00,39.8,11.0,30.17,West,261,5.0,12.0,31,0.00,,,0.00,weatherlink.com 1.10,2013-03-20 17:58:00,
2013-03-20 14:13:00,40.1,10.0,30.16,WSW,248,3.0,14.0,29,0.00,,,0.00,weatherlink.com 1.10,2013-03-20 18:13:00,
2013-03-20 14:28:00,39.5,10.0,30.15,ESE,111,0.0,15.0,30,0.00,,,0.00,weatherlink.com 1.10,2013-03-20 18:28:00,
2013-03-20 14:43:00,40.9,10.0,30.14,NNW,333,4.0,10.0,28,0.00,,,0.00,weatherlink.com 1.10,2013-03-20 18:43:00,
2013-03-20 15:13:00,40.3,9.0,30.11,NNW,338,6.0,10.0,27,0.00,,,0.00,weatherlink.com 1.10,2013-03-20 19:13:00,
2013-03-20 15:28:00,40.4,8.0,30.11,West,267,2.0,10.0,26,0.00,,,0.00,weatherlink.com 1.10,2013-03-20 19:28:00,
2013-03-20 15:43:00,39.6,9.0,30.10,WSW,255,2.0,11.0,28,0.00,,,0.00,weatherlink.com 1.10,2013-03-20 19:43:00,
2013-03-20 15:59:00,40.2,9.0,30.09,NW,308,5.0,13.0,27,0.00,,,0.00,weatherlink.com 1.10,2013-03-20 19:59:00,
2013-03-20 16:14:00,40.9,10.0,30.08,North,355,4.0,10.0,28,0.00,,,0.00,weatherlink.com 1.10,2013-03-20 20:14:00,
2013-03-20 16:29:00,40.7,9.0,30.09,WSW,254,3.0,22.0,27,0.00,,,0.00,weatherlink.com 1.10,2013-03-20 20:29:00,
2013-03-20 16:44:00,41.0,10.0,30.07,ENE,63,1.0,9.0,28,0.00,,,0.00,weatherlink.com 1.10,2013-03-20 20:44:00,
2013-03-20 16:59:00,40.3,9.0,30.07,WNW,290,2.0,14.0,28,0.00,,,0.00,weatherlink.com 1.10,2013-03-20 20:59:00,
2013-03-20 17:14:00,40.1,9.0,30.06,NE,46,4.0,9.0,28,0.00,,,0.00,weatherlink.com 1.10,2013-03-20 21:14:00,
2013-03-20 17:29:00,39.8,10.0,30.05,NNW,332,3.0,14.0,29,0.00,,,0.00,weatherlink.com 1.10,2013-03-20 21:29:00,
2013-03-20 17:44:00,39.9,10.0,30.04,West,271,0.0,8.0,29,0.00,,,0.00,weatherlink.com 1.10,2013-03-20 21:44:00,
2013-03-20 17:59:00,39.5,11.0,30.04,SW,234,5.0,11.0,31,0.00,,,0.00,weatherlink.com 1.10,2013-03-20 21:59:00,
2013-03-20 18:14:00,38.8,10.0,30.04,ENE,57,1.0,9.0,31,0.00,,,0.00,weatherlink.com 1.10,2013-03-20 22:14:00,
2013-03-20 18:29:00,38.7,11.0,30.04,WNW,285,0.0,7.0,32,0.00,,,0.00,weatherlink.com 1.10,2013-03-20 22:29:00,
2013-03-20 18:44:00,37.8,12.0,30.03,ESE,119,4.0,11.0,34,0.00,,,0.00,weatherlink.com 1.10,2013-03-20 22:44:00,
2013-03-20 18:59:00,37.5,13.0,30.04,WSW,248,1.0,10.0,36,0.00,,,0.00,weatherlink.com 1.10,2013-03-20 22:59:00,
2013-03-20 19:14:00,36.9,13.0,30.04,WSW,249,0.0,5.0,37,0.00,,,0.00,weatherlink.com 1.10,2013-03-20 23:14:00,
2013-03-20 19:29:00,36.5,13.0,30.04,NE,44,3.0,5.0,38,0.00,,,0.00,weatherlink.com 1.10,2013-03-20 23:29:00,
2013-03-20 19:44:00,36.3,14.0,30.04,East,85,1.0,7.0,40,0.00,,,0.00,weatherlink.com 1.10,2013-03-20 23:44:00,
2013-03-20 19:59:00,35.6,14.0,30.04,ENE,74,0.0,4.0,42,0.00,,,0.00,weatherlink.com 1.10,2013-03-20 23:59:00,
2013-03-20 20:14:00,35.0,14.0,30.04,SW,233,0.0,3.0,43,0.00,,,0.00,weatherlink.com 1.10,2013-03-21 00:14:00,
2013-03-20 20:29:00,34.7,15.0,30.03,ESE,121,0.0,2.0,45,0.00,,,0.00,weatherlink.com 1.10,2013-03-21 00:29:00,
2013-03-20 20:44:00,34.7,16.0,30.04,WNW,283,0.0,2.0,46,0.00,,,0.00,weatherlink.com 1.10,2013-03-21 00:44:00,
2013-03-20 21:00:00,32.8,23.0,30.07,NE,39,1.0,6.0,68,0.00,,,0.00,weatherlink.com 1.10,2013-03-21 01:00:00,
2013-03-20 21:15:00,30.8,25.0,30.07,West,272,0.0,7.0,78,0.00,,,0.00,weatherlink.com 1.10,2013-03-21 01:15:00,
2013-03-20 21:30:00,29.6,26.0,30.07,WSW,251,0.0,4.0,87,0.00,,,0.00,weatherlink.com 1.10,2013-03-21 01:30:00,
2013-03-20 21:45:00,29.0,27.0,30.07,North,9,0.0,3.0,90,0.00,,,0.00,weatherlink.com 1.10,2013-03-21 01:45:00,
2013-03-20 22:00:00,28.7,26.0,30.07,WNW,292,0.0,2.0,91,0.00,,,0.00,weatherlink.com 1.10,2013-03-21 02:00:00,
2013-03-20 22:15:00,27.8,26.0,30.08,WNW,298,2.0,5.0,91,0.00,,,0.00,weatherlink.com 1.10,2013-03-21 02:15:00,
2013-03-20 22:30:00,27.0,25.0,30.08,NE,42,1.0,8.0,91,0.00,,,0.00,weatherlink.com 1.10,2013-03-21 02:30:00,
2013-03-20 22:45:00,26.8,25.0,30.08,WNW,295,1.0,5.0,91,0.00,,,0.00,weatherlink.com 1.10,2013-03-21 02:45:00,
2013-03-20 23:00:00,26.3,24.0,30.07,NNW,337,0.0,4.0,91,0.00,,,0.00,weatherlink.com 1.10,2013-03-21 03:00:00,
2013-03-20 23:15:00,25.8,23.0,30.07,West,275,1.0,6.0,90,0.00,,,0.00,weatherlink.com 1.10,2013-03-21 03:15:00,
2013-03-20 23:30:00,25.5,23.0,30.06,WNW,293,0.0,3.0,88,0.00,,,0.00,weatherlink.com 1.10,2013-03-21 03:30:00,
2013-03-20 23:45:00,25.5,23.0,30.06,WNW,292,0.0,2.0,88,0.00,,,0.00,weatherlink.com 1.10,2013-03-21 03:45:00,